sensor_id;sensor_type;location;lat;lon;timestamp;P1;durP1;ratioP1;P2;durP2;ratioP2
17917;SDS011;9084;50.956;3.106;2023-04-06T00:01:03;20.30;;;16.73;;
17917;SDS011;9084;50.956;3.106;2023-04-06T00:03:31;20.92;;;17.55;;
17917;SDS011;9084;50.956;3.106;2023-04-06T00:05:56;23.30;;;17.80;;
17917;SDS011;9084;50.956;3.106;2023-04-06T00:08:22;21.23;;;15.65;;
17917;SDS011;9084;50.956;3.106;2023-04-06T00:10:51;19.88;;;16.23;;
17917;SDS011;9084;50.956;3.106;2023-04-06T00:13:19;19.63;;;15.85;;
17917;SDS011;9084;50.956;3.106;2023-04-06T00:15:45;22.38;;;15.15;;
17917;SDS011;9084;50.956;3.106;2023-04-06T00:18:15;21.02;;;15.43;;
17917;SDS011;9084;50.956;3.106;2023-04-06T00:20:44;19.85;;;15.38;;
17917;SDS011;9084;50.956;3.106;2023-04-06T00:23:10;21.13;;;15.55;;
17917;SDS011;9084;50.956;3.106;2023-04-06T00:25:35;20.92;;;15.15;;
17917;SDS011;9084;50.956;3.106;2023-04-06T00:28:03;19.45;;;15.52;;
17917;SDS011;9084;50.956;3.106;2023-04-06T00:30:31;19.45;;;16.05;;
17917;SDS011;9084;50.956;3.106;2023-04-06T00:33:00;20.70;;;15.73;;
17917;SDS011;9084;50.956;3.106;2023-04-06T00:35:25;19.25;;;14.20;;
17917;SDS011;9084;50.956;3.106;2023-04-06T00:37:53;18.17;;;13.77;;
17917;SDS011;9084;50.956;3.106;2023-04-06T00:40:19;20.30;;;14.07;;
17917;SDS011;9084;50.956;3.106;2023-04-06T00:42:47;17.90;;;14.20;;
17917;SDS011;9084;50.956;3.106;2023-04-06T00:45:13;18.48;;;14.48;;
17917;SDS011;9084;50.956;3.106;2023-04-06T00:47:41;19.52;;;15.05;;
17917;SDS011;9084;50.956;3.106;2023-04-06T00:50:09;20.70;;;15.30;;
17917;SDS011;9084;50.956;3.106;2023-04-06T00:52:35;18.40;;;15.68;;
17917;SDS011;9084;50.956;3.106;2023-04-06T00:55:01;17.02;;;14.23;;
17917;SDS011;9084;50.956;3.106;2023-04-06T00:57:32;19.70;;;13.98;;
17917;SDS011;9084;50.956;3.106;2023-04-06T00:59:57;22.02;;;14.82;;
17917;SDS011;9084;50.956;3.106;2023-04-06T01:02:26;17.85;;;14.07;;
17917;SDS011;9084;50.956;3.106;2023-04-06T01:04:54;18.27;;;13.70;;
17917;SDS011;9084;50.956;3.106;2023-04-06T01:07:19;16.40;;;14.48;;
17917;SDS011;9084;50.956;3.106;2023-04-06T01:09:45;16.73;;;14.93;;
17917;SDS011;9084;50.956;3.106;2023-04-06T01:12:13;16.15;;;14.45;;
17917;SDS011;9084;50.956;3.106;2023-04-06T01:14:41;16.73;;;14.10;;
17917;SDS011;9084;50.956;3.106;2023-04-06T01:17:06;17.42;;;12.68;;
17917;SDS011;9084;50.956;3.106;2023-04-06T01:19:32;17.08;;;14.18;;
17917;SDS011;9084;50.956;3.106;2023-04-06T01:21:58;17.08;;;13.52;;
17917;SDS011;9084;50.956;3.106;2023-04-06T01:24:23;15.90;;;13.77;;
17917;SDS011;9084;50.956;3.106;2023-04-06T01:26:51;16.00;;;13.60;;
17917;SDS011;9084;50.956;3.106;2023-04-06T01:29:17;15.98;;;13.05;;
17917;SDS011;9084;50.956;3.106;2023-04-06T01:31:45;16.52;;;13.82;;
17917;SDS011;9084;50.956;3.106;2023-04-06T01:34:10;17.42;;;13.20;;
17917;SDS011;9084;50.956;3.106;2023-04-06T01:36:38;19.42;;;14.40;;
17917;SDS011;9084;50.956;3.106;2023-04-06T01:39:06;19.27;;;14.68;;
17917;SDS011;9084;50.956;3.106;2023-04-06T01:41:35;17.90;;;13.23;;
17917;SDS011;9084;50.956;3.106;2023-04-06T01:44:05;16.00;;;13.18;;
17917;SDS011;9084;50.956;3.106;2023-04-06T01:46:31;17.80;;;13.52;;
17917;SDS011;9084;50.956;3.106;2023-04-06T01:48:56;16.15;;;14.43;;
17917;SDS011;9084;50.956;3.106;2023-04-06T01:51:25;15.88;;;13.52;;
17917;SDS011;9084;50.956;3.106;2023-04-06T01:53:51;19.42;;;13.70;;
17917;SDS011;9084;50.956;3.106;2023-04-06T01:56:17;14.55;;;12.98;;
17917;SDS011;9084;50.956;3.106;2023-04-06T01:58:43;15.98;;;12.48;;
17917;SDS011;9084;50.956;3.106;2023-04-06T02:01:09;15.95;;;13.38;;
17917;SDS011;9084;50.956;3.106;2023-04-06T02:03:37;15.45;;;13.73;;
17917;SDS011;9084;50.956;3.106;2023-04-06T02:06:03;15.55;;;13.20;;
17917;SDS011;9084;50.956;3.106;2023-04-06T02:08:28;17.30;;;13.63;;
17917;SDS011;9084;50.956;3.106;2023-04-06T02:10:54;16.95;;;12.80;;
17917;SDS011;9084;50.956;3.106;2023-04-06T02:13:22;14.80;;;13.07;;
17917;SDS011;9084;50.956;3.106;2023-04-06T02:15:48;17.30;;;13.05;;
17917;SDS011;9084;50.956;3.106;2023-04-06T02:18:14;16.50;;;13.35;;
17917;SDS011;9084;50.956;3.106;2023-04-06T02:20:40;16.23;;;13.80;;
17917;SDS011;9084;50.956;3.106;2023-04-06T02:23:05;15.48;;;12.75;;
17917;SDS011;9084;50.956;3.106;2023-04-06T02:25:31;16.95;;;13.18;;
17917;SDS011;9084;50.956;3.106;2023-04-06T02:28:00;17.02;;;12.98;;
17917;SDS011;9084;50.956;3.106;2023-04-06T02:30:30;12.48;;;11.18;;
17917;SDS011;9084;50.956;3.106;2023-04-06T02:32:59;15.00;;;13.40;;
17917;SDS011;9084;50.956;3.106;2023-04-06T02:35:25;15.30;;;12.68;;
17917;SDS011;9084;50.956;3.106;2023-04-06T02:37:52;14.35;;;12.63;;
17917;SDS011;9084;50.956;3.106;2023-04-06T02:40:22;14.70;;;11.70;;
17917;SDS011;9084;50.956;3.106;2023-04-06T02:42:53;17.08;;;12.07;;
17917;SDS011;9084;50.956;3.106;2023-04-06T02:45:19;16.00;;;12.35;;
17917;SDS011;9084;50.956;3.106;2023-04-06T02:47:45;14.27;;;12.48;;
17917;SDS011;9084;50.956;3.106;2023-04-06T02:50:13;16.58;;;13.68;;
17917;SDS011;9084;50.956;3.106;2023-04-06T02:52:41;14.18;;;12.65;;
17917;SDS011;9084;50.956;3.106;2023-04-06T02:55:10;14.43;;;12.70;;
17917;SDS011;9084;50.956;3.106;2023-04-06T02:57:38;13.68;;;12.05;;
17917;SDS011;9084;50.956;3.106;2023-04-06T03:00:04;13.77;;;12.32;;
17917;SDS011;9084;50.956;3.106;2023-04-06T03:02:33;16.42;;;12.70;;
17917;SDS011;9084;50.956;3.106;2023-04-06T03:04:58;14.30;;;12.80;;
17917;SDS011;9084;50.956;3.106;2023-04-06T03:07:28;17.00;;;14.13;;
17917;SDS011;9084;50.956;3.106;2023-04-06T03:09:56;15.38;;;12.90;;
17917;SDS011;9084;50.956;3.106;2023-04-06T03:12:22;14.88;;;12.77;;
17917;SDS011;9084;50.956;3.106;2023-04-06T03:14:47;15.93;;;12.63;;
17917;SDS011;9084;50.956;3.106;2023-04-06T03:17:17;13.88;;;12.48;;
17917;SDS011;9084;50.956;3.106;2023-04-06T03:19:45;14.30;;;12.80;;
17917;SDS011;9084;50.956;3.106;2023-04-06T03:22:11;15.25;;;12.90;;
17917;SDS011;9084;50.956;3.106;2023-04-06T03:24:39;14.50;;;12.85;;
17917;SDS011;9084;50.956;3.106;2023-04-06T03:27:05;15.40;;;11.98;;
17917;SDS011;9084;50.956;3.106;2023-04-06T03:29:33;14.05;;;12.60;;
17917;SDS011;9084;50.956;3.106;2023-04-06T03:31:59;15.07;;;12.18;;
17917;SDS011;9084;50.956;3.106;2023-04-06T03:34:29;14.70;;;12.38;;
17917;SDS011;9084;50.956;3.106;2023-04-06T03:36:57;14.90;;;12.98;;
17917;SDS011;9084;50.956;3.106;2023-04-06T03:39:23;14.90;;;13.10;;
17917;SDS011;9084;50.956;3.106;2023-04-06T03:41:51;16.88;;;13.52;;
17917;SDS011;9084;50.956;3.106;2023-04-06T03:44:16;14.43;;;13.02;;
17917;SDS011;9084;50.956;3.106;2023-04-06T03:46:44;14.23;;;12.82;;
17917;SDS011;9084;50.956;3.106;2023-04-06T03:49:12;14.32;;;12.93;;
17917;SDS011;9084;50.956;3.106;2023-04-06T03:51:41;14.23;;;12.70;;
17917;SDS011;9084;50.956;3.106;2023-04-06T03:54:06;14.88;;;12.38;;
17917;SDS011;9084;50.956;3.106;2023-04-06T03:56:32;14.52;;;12.35;;
17917;SDS011;9084;50.956;3.106;2023-04-06T03:58:57;13.40;;;12.02;;
17917;SDS011;9084;50.956;3.106;2023-04-06T04:01:26;13.40;;;12.00;;
17917;SDS011;9084;50.956;3.106;2023-04-06T04:03:54;12.50;;;11.02;;
17917;SDS011;9084;50.956;3.106;2023-04-06T04:06:20;12.80;;;11.50;;
17917;SDS011;9084;50.956;3.106;2023-04-06T04:08:46;13.85;;;10.50;;
17917;SDS011;9084;50.956;3.106;2023-04-06T04:11:14;12.77;;;11.30;;
17917;SDS011;9084;50.956;3.106;2023-04-06T04:13:40;12.35;;;10.38;;
17917;SDS011;9084;50.956;3.106;2023-04-06T04:16:06;11.00;;;9.88;;
17917;SDS011;9084;50.956;3.106;2023-04-06T04:18:34;10.50;;;9.52;;
17917;SDS011;9084;50.956;3.106;2023-04-06T04:21:02;11.40;;;9.90;;
17917;SDS011;9084;50.956;3.106;2023-04-06T04:23:30;10.90;;;8.95;;
17917;SDS011;9084;50.956;3.106;2023-04-06T04:25:55;12.32;;;10.30;;
17917;SDS011;9084;50.956;3.106;2023-04-06T04:28:21;11.82;;;10.10;;
17917;SDS011;9084;50.956;3.106;2023-04-06T04:30:49;11.02;;;9.93;;
17917;SDS011;9084;50.956;3.106;2023-04-06T04:33:17;9.93;;;8.88;;
17917;SDS011;9084;50.956;3.106;2023-04-06T04:35:43;14.82;;;10.00;;
17917;SDS011;9084;50.956;3.106;2023-04-06T04:38:11;10.43;;;8.05;;
17917;SDS011;9084;50.956;3.106;2023-04-06T04:40:36;10.75;;;9.68;;
17917;SDS011;9084;50.956;3.106;2023-04-06T04:43:02;9.05;;;8.15;;
17917;SDS011;9084;50.956;3.106;2023-04-06T04:45:30;10.35;;;9.27;;
17917;SDS011;9084;50.956;3.106;2023-04-06T04:47:56;8.20;;;7.40;;
17917;SDS011;9084;50.956;3.106;2023-04-06T04:50:21;8.70;;;7.63;;
17917;SDS011;9084;50.956;3.106;2023-04-06T04:52:47;8.02;;;7.22;;
17917;SDS011;9084;50.956;3.106;2023-04-06T04:55:13;8.00;;;6.43;;
17917;SDS011;9084;50.956;3.106;2023-04-06T04:57:39;8.00;;;7.20;;
17917;SDS011;9084;50.956;3.106;2023-04-06T05:00:05;8.27;;;7.10;;
17917;SDS011;9084;50.956;3.106;2023-04-06T05:02:31;7.13;;;6.53;;
17917;SDS011;9084;50.956;3.106;2023-04-06T05:04:59;8.63;;;6.97;;
17917;SDS011;9084;50.956;3.106;2023-04-06T05:07:27;8.57;;;6.90;;
17917;SDS011;9084;50.956;3.106;2023-04-06T05:09:55;8.77;;;7.43;;
17917;SDS011;9084;50.956;3.106;2023-04-06T05:12:21;7.53;;;6.72;;
17917;SDS011;9084;50.956;3.106;2023-04-06T05:14:46;8.05;;;6.45;;
17917;SDS011;9084;50.956;3.106;2023-04-06T05:17:15;7.18;;;6.47;;
17917;SDS011;9084;50.956;3.106;2023-04-06T05:19:40;8.20;;;6.68;;
17917;SDS011;9084;50.956;3.106;2023-04-06T05:22:06;7.78;;;6.47;;
17917;SDS011;9084;50.956;3.106;2023-04-06T05:24:32;7.75;;;6.82;;
17917;SDS011;9084;50.956;3.106;2023-04-06T05:27:00;6.93;;;6.22;;
17917;SDS011;9084;50.956;3.106;2023-04-06T05:29:25;7.03;;;6.32;;
17917;SDS011;9084;50.956;3.106;2023-04-06T05:31:56;6.93;;;6.20;;
17917;SDS011;9084;50.956;3.106;2023-04-06T05:34:24;7.25;;;5.10;;
17917;SDS011;9084;50.956;3.106;2023-04-06T05:36:54;5.75;;;4.93;;
17917;SDS011;9084;50.956;3.106;2023-04-06T05:39:23;6.00;;;5.40;;
17917;SDS011;9084;50.956;3.106;2023-04-06T05:41:48;4.65;;;4.25;;
17917;SDS011;9084;50.956;3.106;2023-04-06T05:44:16;5.18;;;4.68;;
17917;SDS011;9084;50.956;3.106;2023-04-06T05:46:42;4.75;;;3.88;;
17917;SDS011;9084;50.956;3.106;2023-04-06T05:49:10;5.05;;;4.55;;
17917;SDS011;9084;50.956;3.106;2023-04-06T05:51:38;4.78;;;3.85;;
17917;SDS011;9084;50.956;3.106;2023-04-06T05:54:03;4.75;;;4.10;;
17917;SDS011;9084;50.956;3.106;2023-04-06T05:56:29;5.15;;;3.72;;
17917;SDS011;9084;50.956;3.106;2023-04-06T05:58:57;5.05;;;4.00;;
17917;SDS011;9084;50.956;3.106;2023-04-06T06:01:25;3.47;;;3.17;;
17917;SDS011;9084;50.956;3.106;2023-04-06T06:03:51;4.22;;;3.83;;
17917;SDS011;9084;50.956;3.106;2023-04-06T06:06:19;4.20;;;3.78;;
17917;SDS011;9084;50.956;3.106;2023-04-06T06:08:45;4.53;;;3.45;;
17917;SDS011;9084;50.956;3.106;2023-04-06T06:11:13;4.85;;;3.80;;
17917;SDS011;9084;50.956;3.106;2023-04-06T06:13:39;3.47;;;3.15;;
17917;SDS011;9084;50.956;3.106;2023-04-06T06:16:05;6.32;;;3.90;;
17917;SDS011;9084;50.956;3.106;2023-04-06T06:18:31;5.20;;;4.40;;
17917;SDS011;9084;50.956;3.106;2023-04-06T06:20:58;4.22;;;3.78;;
17917;SDS011;9084;50.956;3.106;2023-04-06T06:23:27;5.10;;;4.57;;
17917;SDS011;9084;50.956;3.106;2023-04-06T06:25:53;4.45;;;3.88;;
17917;SDS011;9084;50.956;3.106;2023-04-06T06:28:19;5.85;;;4.57;;
17917;SDS011;9084;50.956;3.106;2023-04-06T06:30:44;4.22;;;3.90;;
17917;SDS011;9084;50.956;3.106;2023-04-06T06:33:12;5.03;;;4.53;;
17917;SDS011;9084;50.956;3.106;2023-04-06T06:35:43;5.93;;;4.90;;
17917;SDS011;9084;50.956;3.106;2023-04-06T06:38:13;4.85;;;4.10;;
17917;SDS011;9084;50.956;3.106;2023-04-06T06:40:39;4.63;;;4.22;;
17917;SDS011;9084;50.956;3.106;2023-04-06T06:43:06;5.18;;;4.32;;
17917;SDS011;9084;50.956;3.106;2023-04-06T06:45:32;3.88;;;3.58;;
17917;SDS011;9084;50.956;3.106;2023-04-06T06:47:57;5.28;;;4.63;;
17917;SDS011;9084;50.956;3.106;2023-04-06T06:50:25;4.72;;;4.22;;
17917;SDS011;9084;50.956;3.106;2023-04-06T06:52:51;4.97;;;4.47;;
17917;SDS011;9084;50.956;3.106;2023-04-06T06:55:17;4.85;;;4.15;;
17917;SDS011;9084;50.956;3.106;2023-04-06T06:57:44;5.68;;;4.82;;
17917;SDS011;9084;50.956;3.106;2023-04-06T07:00:11;4.78;;;4.20;;
17917;SDS011;9084;50.956;3.106;2023-04-06T07:02:38;5.20;;;4.38;;
17917;SDS011;9084;50.956;3.106;2023-04-06T07:05:04;7.65;;;4.80;;
17917;SDS011;9084;50.956;3.106;2023-04-06T07:07:31;5.55;;;4.78;;
17917;SDS011;9084;50.956;3.106;2023-04-06T07:10:00;4.88;;;4.32;;
17917;SDS011;9084;50.956;3.106;2023-04-06T07:12:26;6.88;;;4.88;;
17917;SDS011;9084;50.956;3.106;2023-04-06T07:14:57;7.20;;;5.15;;
17917;SDS011;9084;50.956;3.106;2023-04-06T07:17:23;5.47;;;4.97;;
17917;SDS011;9084;50.956;3.106;2023-04-06T07:19:49;5.10;;;4.60;;
17917;SDS011;9084;50.956;3.106;2023-04-06T07:22:17;5.38;;;4.82;;
17917;SDS011;9084;50.956;3.106;2023-04-06T07:24:42;5.45;;;4.95;;
17917;SDS011;9084;50.956;3.106;2023-04-06T07:27:08;6.10;;;5.18;;
17917;SDS011;9084;50.956;3.106;2023-04-06T07:29:34;6.72;;;5.97;;
17917;SDS011;9084;50.956;3.106;2023-04-06T07:31:59;6.18;;;5.57;;
17917;SDS011;9084;50.956;3.106;2023-04-06T07:34:27;6.80;;;6.13;;
17917;SDS011;9084;50.956;3.106;2023-04-06T07:36:55;7.40;;;6.70;;
17917;SDS011;9084;50.956;3.106;2023-04-06T07:39:24;6.70;;;6.07;;
17917;SDS011;9084;50.956;3.106;2023-04-06T07:41:51;7.93;;;7.13;;
17917;SDS011;9084;50.956;3.106;2023-04-06T07:44:16;8.27;;;7.43;;
17917;SDS011;9084;50.956;3.106;2023-04-06T07:46:42;8.32;;;6.85;;
17917;SDS011;9084;50.956;3.106;2023-04-06T07:49:10;7.03;;;6.32;;
17917;SDS011;9084;50.956;3.106;2023-04-06T07:51:38;8.73;;;7.40;;
17917;SDS011;9084;50.956;3.106;2023-04-06T07:54:05;9.52;;;7.68;;
17917;SDS011;9084;50.956;3.106;2023-04-06T07:56:31;8.32;;;7.45;;
17917;SDS011;9084;50.956;3.106;2023-04-06T07:58:58;8.40;;;7.38;;
17917;SDS011;9084;50.956;3.106;2023-04-06T08:01:24;9.65;;;7.68;;
17917;SDS011;9084;50.956;3.106;2023-04-06T08:03:50;8.80;;;7.88;;
17917;SDS011;9084;50.956;3.106;2023-04-06T08:06:16;9.52;;;8.63;;
17917;SDS011;9084;50.956;3.106;2023-04-06T08:08:44;9.10;;;7.55;;
17917;SDS011;9084;50.956;3.106;2023-04-06T08:11:15;10.32;;;7.72;;
17917;SDS011;9084;50.956;3.106;2023-04-06T08:13:40;9.75;;;8.82;;
17917;SDS011;9084;50.956;3.106;2023-04-06T08:16:08;10.70;;;9.65;;
17917;SDS011;9084;50.956;3.106;2023-04-06T08:18:36;11.75;;;8.60;;
17917;SDS011;9084;50.956;3.106;2023-04-06T08:21:02;9.27;;;8.38;;
17917;SDS011;9084;50.956;3.106;2023-04-06T08:23:27;9.02;;;8.23;;
17917;SDS011;9084;50.956;3.106;2023-04-06T08:25:53;11.10;;;9.95;;
17917;SDS011;9084;50.956;3.106;2023-04-06T08:28:21;10.60;;;9.43;;
17917;SDS011;9084;50.956;3.106;2023-04-06T08:30:49;11.38;;;9.85;;
17917;SDS011;9084;50.956;3.106;2023-04-06T08:33:15;10.98;;;9.43;;
17917;SDS011;9084;50.956;3.106;2023-04-06T08:35:41;9.77;;;8.82;;
17917;SDS011;9084;50.956;3.106;2023-04-06T08:38:06;10.90;;;9.80;;
17917;SDS011;9084;50.956;3.106;2023-04-06T08:40:38;10.93;;;9.93;;
17917;SDS011;9084;50.956;3.106;2023-04-06T08:43:09;11.65;;;10.30;;
17917;SDS011;9084;50.956;3.106;2023-04-06T08:45:44;11.07;;;9.98;;
17917;SDS011;9084;50.956;3.106;2023-04-06T08:48:15;12.30;;;11.02;;
17917;SDS011;9084;50.956;3.106;2023-04-06T08:50:42;12.23;;;10.85;;
17917;SDS011;9084;50.956;3.106;2023-04-06T08:53:10;12.02;;;10.82;;
17917;SDS011;9084;50.956;3.106;2023-04-06T08:55:36;15.43;;;10.98;;
17917;SDS011;9084;50.956;3.106;2023-04-06T08:58:03;13.30;;;11.52;;
17917;SDS011;9084;50.956;3.106;2023-04-06T09:00:33;13.40;;;11.95;;
17917;SDS011;9084;50.956;3.106;2023-04-06T09:03:07;12.45;;;11.10;;
17917;SDS011;9084;50.956;3.106;2023-04-06T09:05:36;13.05;;;11.70;;
17917;SDS011;9084;50.956;3.106;2023-04-06T09:08:07;14.15;;;12.73;;
17917;SDS011;9084;50.956;3.106;2023-04-06T09:10:33;14.30;;;12.05;;
17917;SDS011;9084;50.956;3.106;2023-04-06T09:13:06;13.15;;;11.95;;
17917;SDS011;9084;50.956;3.106;2023-04-06T09:15:34;13.18;;;11.20;;
17917;SDS011;9084;50.956;3.106;2023-04-06T09:18:03;12.07;;;10.88;;
17917;SDS011;9084;50.956;3.106;2023-04-06T09:20:28;11.48;;;10.38;;
17917;SDS011;9084;50.956;3.106;2023-04-06T09:22:54;11.00;;;10.00;;
17917;SDS011;9084;50.956;3.106;2023-04-06T09:25:24;10.85;;;9.85;;
17917;SDS011;9084;50.956;3.106;2023-04-06T09:28:03;11.32;;;10.25;;
17917;SDS011;9084;50.956;3.106;2023-04-06T09:30:29;11.85;;;10.68;;
17917;SDS011;9084;50.956;3.106;2023-04-06T09:32:56;10.68;;;9.68;;
17917;SDS011;9084;50.956;3.106;2023-04-06T09:35:27;10.20;;;9.20;;
17917;SDS011;9084;50.956;3.106;2023-04-06T09:37:54;10.95;;;9.82;;
17917;SDS011;9084;50.956;3.106;2023-04-06T09:40:20;10.75;;;9.85;;
17917;SDS011;9084;50.956;3.106;2023-04-06T09:42:47;10.13;;;9.30;;
17917;SDS011;9084;50.956;3.106;2023-04-06T09:45:17;10.00;;;9.10;;
17917;SDS011;9084;50.956;3.106;2023-04-06T09:47:43;10.52;;;9.63;;
17917;SDS011;9084;50.956;3.106;2023-04-06T09:50:13;9.52;;;8.60;;
17917;SDS011;9084;50.956;3.106;2023-04-06T09:52:49;11.55;;;10.45;;
17917;SDS011;9084;50.956;3.106;2023-04-06T09:55:36;10.60;;;9.60;;
17917;SDS011;9084;50.956;3.106;2023-04-06T09:58:09;10.25;;;9.25;;
17917;SDS011;9084;50.956;3.106;2023-04-06T10:00:44;10.18;;;9.18;;
17917;SDS011;9084;50.956;3.106;2023-04-06T10:05:59;10.50;;;9.60;;
17917;SDS011;9084;50.956;3.106;2023-04-06T10:08:30;10.10;;;9.20;;
17917;SDS011;9084;50.956;3.106;2023-04-06T10:11:02;9.98;;;9.00;;
17917;SDS011;9084;50.956;3.106;2023-04-06T10:13:33;10.27;;;9.38;;
17917;SDS011;9084;50.956;3.106;2023-04-06T10:16:00;9.73;;;8.93;;
17917;SDS011;9084;50.956;3.106;2023-04-06T10:18:29;9.52;;;8.70;;
17917;SDS011;9084;50.956;3.106;2023-04-06T10:21:01;9.55;;;8.40;;
17917;SDS011;9084;50.956;3.106;2023-04-06T10:26:12;10.00;;;9.10;;
17917;SDS011;9084;50.956;3.106;2023-04-06T10:28:42;9.57;;;8.68;;
17917;SDS011;9084;50.956;3.106;2023-04-06T10:31:10;10.40;;;9.50;;
17917;SDS011;9084;50.956;3.106;2023-04-06T10:33:37;10.27;;;9.38;;
17917;SDS011;9084;50.956;3.106;2023-04-06T10:36:13;9.90;;;9.10;;
17917;SDS011;9084;50.956;3.106;2023-04-06T10:38:40;10.48;;;9.55;;
17917;SDS011;9084;50.956;3.106;2023-04-06T10:41:09;11.82;;;10.85;;
17917;SDS011;9084;50.956;3.106;2023-04-06T10:43:39;12.25;;;11.15;;
17917;SDS011;9084;50.956;3.106;2023-04-06T10:46:06;12.00;;;10.93;;
17917;SDS011;9084;50.956;3.106;2023-04-06T10:48:43;12.10;;;11.10;;
17917;SDS011;9084;50.956;3.106;2023-04-06T10:51:13;12.50;;;11.30;;
17917;SDS011;9084;50.956;3.106;2023-04-06T10:53:46;11.60;;;10.60;;
17917;SDS011;9084;50.956;3.106;2023-04-06T10:56:17;12.77;;;11.43;;
17917;SDS011;9084;50.956;3.106;2023-04-06T10:58:46;11.65;;;10.60;;
17917;SDS011;9084;50.956;3.106;2023-04-06T11:01:16;11.38;;;10.35;;
17917;SDS011;9084;50.956;3.106;2023-04-06T11:03:46;11.88;;;10.77;;
17917;SDS011;9084;50.956;3.106;2023-04-06T11:08:50;11.05;;;9.95;;
17917;SDS011;9084;50.956;3.106;2023-04-06T11:11:20;10.93;;;9.98;;
17917;SDS011;9084;50.956;3.106;2023-04-06T11:16:20;11.63;;;9.50;;
17917;SDS011;9084;50.956;3.106;2023-04-06T11:21:32;10.02;;;9.13;;
17917;SDS011;9084;50.956;3.106;2023-04-06T11:24:09;9.40;;;8.60;;
17917;SDS011;9084;50.956;3.106;2023-04-06T11:26:54;9.13;;;8.32;;
17917;SDS011;9084;50.956;3.106;2023-04-06T11:29:25;8.63;;;7.93;;
17917;SDS011;9084;50.956;3.106;2023-04-06T11:31:52;8.05;;;7.30;;
17917;SDS011;9084;50.956;3.106;2023-04-06T11:34:20;9.27;;;8.50;;
17917;SDS011;9084;50.956;3.106;2023-04-06T11:36:48;8.43;;;7.72;;
17917;SDS011;9084;50.956;3.106;2023-04-06T11:39:19;8.40;;;7.72;;
17917;SDS011;9084;50.956;3.106;2023-04-06T11:41:53;8.77;;;8.07;;
17917;SDS011;9084;50.956;3.106;2023-04-06T11:44:34;8.70;;;7.90;;
17917;SDS011;9084;50.956;3.106;2023-04-06T11:47:00;7.43;;;6.88;;
17917;SDS011;9084;50.956;3.106;2023-04-06T11:49:32;7.20;;;6.53;;
17917;SDS011;9084;50.956;3.106;2023-04-06T11:52:01;6.32;;;5.82;;
17917;SDS011;9084;50.956;3.106;2023-04-06T11:54:35;8.13;;;7.45;;
17917;SDS011;9084;50.956;3.106;2023-04-06T11:57:05;7.55;;;6.85;;
17917;SDS011;9084;50.956;3.106;2023-04-06T11:59:33;6.72;;;6.22;;
17917;SDS011;9084;50.956;3.106;2023-04-06T12:01:59;8.02;;;6.35;;
17917;SDS011;9084;50.956;3.106;2023-04-06T12:04:25;6.68;;;6.18;;
17917;SDS011;9084;50.956;3.106;2023-04-06T12:06:53;6.82;;;6.32;;
17917;SDS011;9084;50.956;3.106;2023-04-06T12:09:19;6.97;;;6.38;;
17917;SDS011;9084;50.956;3.106;2023-04-06T12:11:48;5.90;;;5.38;;
17917;SDS011;9084;50.956;3.106;2023-04-06T12:14:14;5.68;;;5.28;;
17917;SDS011;9084;50.956;3.106;2023-04-06T12:16:40;5.93;;;5.43;;
17917;SDS011;9084;50.956;3.106;2023-04-06T12:19:06;5.40;;;4.90;;
17917;SDS011;9084;50.956;3.106;2023-04-06T12:21:34;5.88;;;5.38;;
17917;SDS011;9084;50.956;3.106;2023-04-06T12:24:02;6.55;;;6.05;;
17917;SDS011;9084;50.956;3.106;2023-04-06T12:26:29;5.60;;;5.00;;
17917;SDS011;9084;50.956;3.106;2023-04-06T12:28:58;5.63;;;5.15;;
17917;SDS011;9084;50.956;3.106;2023-04-06T12:31:31;5.50;;;5.00;;
17917;SDS011;9084;50.956;3.106;2023-04-06T12:34:00;5.13;;;4.72;;
17917;SDS011;9084;50.956;3.106;2023-04-06T12:36:27;5.13;;;4.63;;
17917;SDS011;9084;50.956;3.106;2023-04-06T12:38:52;4.95;;;4.55;;
17917;SDS011;9084;50.956;3.106;2023-04-06T12:41:18;4.53;;;4.13;;
17917;SDS011;9084;50.956;3.106;2023-04-06T12:43:45;4.00;;;3.70;;
17917;SDS011;9084;50.956;3.106;2023-04-06T12:46:13;3.83;;;3.53;;
17917;SDS011;9084;50.956;3.106;2023-04-06T12:48:39;3.90;;;3.60;;
17917;SDS011;9084;50.956;3.106;2023-04-06T12:51:06;4.80;;;4.18;;
17917;SDS011;9084;50.956;3.106;2023-04-06T12:53:33;4.40;;;3.33;;
17917;SDS011;9084;50.956;3.106;2023-04-06T12:55:59;3.00;;;2.80;;
17917;SDS011;9084;50.956;3.106;2023-04-06T12:58:29;3.90;;;3.22;;
17917;SDS011;9084;50.956;3.106;2023-04-06T13:01:00;3.58;;;2.88;;
17917;SDS011;9084;50.956;3.106;2023-04-06T13:03:35;4.90;;;2.90;;
17917;SDS011;9084;50.956;3.106;2023-04-06T13:06:01;3.60;;;3.20;;
17917;SDS011;9084;50.956;3.106;2023-04-06T13:08:27;5.75;;;3.85;;
17917;SDS011;9084;50.956;3.106;2023-04-06T13:10:55;5.18;;;3.50;;
17917;SDS011;9084;50.956;3.106;2023-04-06T13:13:28;6.00;;;3.00;;
17917;SDS011;9084;50.956;3.106;2023-04-06T13:15:55;4.93;;;2.40;;
17917;SDS011;9084;50.956;3.106;2023-04-06T13:18:26;5.50;;;2.97;;
17917;SDS011;9084;50.956;3.106;2023-04-06T13:20:55;4.72;;;2.72;;
17917;SDS011;9084;50.956;3.106;2023-04-06T13:23:21;3.15;;;2.67;;
17917;SDS011;9084;50.956;3.106;2023-04-06T13:25:47;3.83;;;2.35;;
17917;SDS011;9084;50.956;3.106;2023-04-06T13:28:13;4.10;;;2.45;;
17917;SDS011;9084;50.956;3.106;2023-04-06T13:30:38;4.30;;;2.70;;
17917;SDS011;9084;50.956;3.106;2023-04-06T13:33:07;6.25;;;2.63;;
17917;SDS011;9084;50.956;3.106;2023-04-06T13:35:32;4.57;;;2.67;;
17917;SDS011;9084;50.956;3.106;2023-04-06T13:38:02;3.05;;;2.60;;
17917;SDS011;9084;50.956;3.106;2023-04-06T13:40:28;4.78;;;3.10;;
17917;SDS011;9084;50.956;3.106;2023-04-06T13:42:56;4.10;;;3.30;;
17917;SDS011;9084;50.956;3.106;2023-04-06T13:45:24;6.03;;;3.70;;
17917;SDS011;9084;50.956;3.106;2023-04-06T13:47:50;6.78;;;3.17;;
17917;SDS011;9084;50.956;3.106;2023-04-06T13:50:15;6.03;;;2.95;;
17917;SDS011;9084;50.956;3.106;2023-04-06T13:52:41;8.27;;;3.25;;
17917;SDS011;9084;50.956;3.106;2023-04-06T13:55:07;9.38;;;3.72;;
17917;SDS011;9084;50.956;3.106;2023-04-06T13:57:33;9.25;;;3.88;;
17917;SDS011;9084;50.956;3.106;2023-04-06T14:00:01;8.70;;;3.63;;
17917;SDS011;9084;50.956;3.106;2023-04-06T14:02:27;8.48;;;3.90;;
17917;SDS011;9084;50.956;3.106;2023-04-06T14:04:53;9.43;;;3.90;;
17917;SDS011;9084;50.956;3.106;2023-04-06T14:07:26;7.70;;;4.28;;
17917;SDS011;9084;50.956;3.106;2023-04-06T14:09:51;8.40;;;4.05;;
17917;SDS011;9084;50.956;3.106;2023-04-06T14:12:19;10.90;;;4.18;;
17917;SDS011;9084;50.956;3.106;2023-04-06T14:14:47;8.00;;;4.10;;
17917;SDS011;9084;50.956;3.106;2023-04-06T14:17:13;6.10;;;2.90;;
17917;SDS011;9084;50.956;3.106;2023-04-06T14:19:40;5.40;;;3.03;;
17917;SDS011;9084;50.956;3.106;2023-04-06T14:22:09;14.38;;;4.13;;
17917;SDS011;9084;50.956;3.106;2023-04-06T14:24:37;11.38;;;5.40;;
17917;SDS011;9084;50.956;3.106;2023-04-06T14:27:03;10.20;;;3.63;;
17917;SDS011;9084;50.956;3.106;2023-04-06T14:29:31;9.23;;;4.57;;
17917;SDS011;9084;50.956;3.106;2023-04-06T14:31:56;10.68;;;3.90;;
17917;SDS011;9084;50.956;3.106;2023-04-06T14:34:25;7.03;;;3.75;;
17917;SDS011;9084;50.956;3.106;2023-04-06T14:36:51;11.05;;;5.93;;
17917;SDS011;9084;50.956;3.106;2023-04-06T14:39:17;9.80;;;4.70;;
17917;SDS011;9084;50.956;3.106;2023-04-06T14:41:43;11.27;;;3.72;;
17917;SDS011;9084;50.956;3.106;2023-04-06T14:44:12;10.95;;;3.40;;
17917;SDS011;9084;50.956;3.106;2023-04-06T14:46:39;9.95;;;3.40;;
17917;SDS011;9084;50.956;3.106;2023-04-06T14:49:09;7.88;;;3.45;;
17917;SDS011;9084;50.956;3.106;2023-04-06T14:51:39;5.90;;;2.97;;
17917;SDS011;9084;50.956;3.106;2023-04-06T14:54:07;6.25;;;3.00;;
17917;SDS011;9084;50.956;3.106;2023-04-06T14:56:35;6.72;;;2.80;;
17917;SDS011;9084;50.956;3.106;2023-04-06T14:59:02;6.38;;;3.00;;
17917;SDS011;9084;50.956;3.106;2023-04-06T15:01:28;9.35;;;2.72;;
17917;SDS011;9084;50.956;3.106;2023-04-06T15:03:58;9.25;;;2.97;;
17917;SDS011;9084;50.956;3.106;2023-04-06T15:06:24;5.53;;;2.30;;